createdAt,value
2019-01-16T00:00:07.232Z,11.40
2019-01-16T00:02:53.995Z,11.40
2019-01-16T00:05:40.608Z,10.65
2019-01-16T00:08:27.154Z,12.75
2019-01-16T00:11:13.756Z,11.63
2019-01-16T00:14:00.161Z,9.90
2019-01-16T00:16:40.020Z,11.30
2019-01-16T00:19:31.283Z,12.40
2019-01-16T00:22:15.532Z,13.48
2019-01-16T00:25:03.448Z,12.65
2019-01-16T00:27:50.102Z,10.75
2019-01-16T00:30:28.285Z,11.73
2019-01-16T00:33:14.332Z,12.40
2019-01-16T00:36:01.716Z,14.35
2019-01-16T00:38:50.242Z,14.70
2019-01-16T00:41:38.215Z,13.35
2019-01-16T00:44:17.053Z,16.87
2019-01-16T00:47:23.360Z,17.98
2019-01-16T00:50:11.893Z,16.95
2019-01-16T00:52:58.024Z,16.77
2019-01-16T00:55:44.346Z,15.28
2019-01-16T00:58:38.607Z,16.85
2019-01-16T01:01:29.518Z,16.35
2019-01-16T01:04:12.726Z,18.75
2019-01-16T01:06:59.248Z,18.07
2019-01-16T01:09:53.255Z,16.82
2019-01-16T01:12:39.896Z,17.75
2019-01-16T01:15:20.424Z,17.07
2019-01-16T01:18:07.300Z,20.90
2019-01-16T01:20:51.559Z,18.92
2019-01-16T01:23:45.331Z,18.98
2019-01-16T01:26:31.899Z,15.75
2019-01-16T01:29:32.211Z,17.90
2019-01-16T01:32:32.436Z,17.35
2019-01-16T01:35:20.536Z,19.05
2019-01-16T01:38:08.967Z,14.23
2019-01-16T01:41:12.308Z,17.20
2019-01-16T01:43:59.157Z,20.68
2019-01-16T01:46:50.388Z,15.10
2019-01-16T01:49:28.587Z,17.95
2019-01-16T01:52:13.848Z,14.03
2019-01-16T01:55:04.604Z,19.12
2019-01-16T01:58:01.507Z,15.48
2019-01-16T02:00:50.059Z,14.53
2019-01-16T02:03:36.768Z,14.83
2019-01-16T02:06:17.353Z,15.72
2019-01-16T02:08:53.188Z,14.40
2019-01-16T02:11:32.448Z,12.45
2019-01-16T02:14:15.874Z,13.75
2019-01-16T02:17:06.853Z,13.13
2019-01-16T02:19:48.344Z,15.68
2019-01-16T02:22:37.027Z,13.53
2019-01-16T02:25:40.459Z,11.80
2019-01-16T02:28:26.087Z,11.60
2019-01-16T02:31:12.509Z,16.65
2019-01-16T02:34:00.433Z,10.08
2019-01-16T02:36:48.431Z,13.85
2019-01-16T02:39:38.784Z,11.40
2019-01-16T02:42:21.040Z,12.85
2019-01-16T02:45:07.768Z,12.00
2019-01-16T02:47:55.880Z,12.33
2019-01-16T02:50:46.845Z,10.78
2019-01-16T02:53:37.613Z,11.70
2019-01-16T02:56:16.806Z,11.95
2019-01-16T02:58:58.596Z,10.20
2019-01-16T03:01:49.824Z,11.12
2019-01-16T03:04:36.216Z,12.30
2019-01-16T03:07:33.288Z,12.03
2019-01-16T03:10:19.487Z,11.38
2019-01-16T03:13:07.727Z,13.25
2019-01-16T03:15:46.820Z,11.83
2019-01-16T03:18:34.939Z,10.20
2019-01-16T03:21:24.403Z,12.35
2019-01-16T03:24:09.912Z,12.07
2019-01-16T03:26:52.830Z,10.85
2019-01-16T03:29:35.545Z,12.40
2019-01-16T03:32:23.588Z,11.05
2019-01-16T03:34:58.238Z,12.45
2019-01-16T03:37:39.466Z,11.65
2019-01-16T03:40:27.131Z,11.48
2019-01-16T03:43:05.628Z,13.05
2019-01-16T03:46:00.573Z,13.88
2019-01-16T03:48:53.752Z,15.00
2019-01-16T03:51:56.949Z,13.65
2019-01-16T03:54:43.311Z,13.45
2019-01-16T03:57:49.482Z,18.85
2019-01-16T04:00:33.428Z,14.75
2019-01-16T04:03:19.959Z,13.38
2019-01-16T04:05:56.203Z,16.42
2019-01-16T04:08:42.827Z,17.32
2019-01-16T04:11:29.492Z,15.70
2019-01-16T04:14:26.792Z,15.45
2019-01-16T04:17:13.336Z,15.88
2019-01-16T04:20:16.466Z,14.47
2019-01-16T04:22:55.138Z,14.55
2019-01-16T04:25:36.886Z,16.55
2019-01-16T04:28:23.639Z,18.07
2019-01-16T04:31:06.565Z,17.20
2019-01-16T04:33:48.898Z,13.72
2019-01-16T04:36:31.220Z,15.13
2019-01-16T04:39:17.524Z,15.23
2019-01-16T04:42:11.425Z,14.03
2019-01-16T04:44:57.600Z,13.32
2019-01-16T04:47:48.522Z,14.63
2019-01-16T04:50:45.815Z,17.82
2019-01-16T04:53:28.679Z,14.10
2019-01-16T04:56:28.302Z,14.43
2019-01-16T04:59:15.111Z,15.70
2019-01-16T05:01:55.553Z,13.13
2019-01-16T05:04:41.946Z,14.33
2019-01-16T05:07:18.094Z,21.90
2019-01-16T05:10:04.892Z,11.28
2019-01-16T05:12:51.176Z,10.98
2019-01-16T05:15:27.123Z,15.68
2019-01-16T05:18:13.510Z,11.68
2019-01-16T05:21:01.377Z,11.50
2019-01-16T05:23:52.245Z,10.25
2019-01-16T05:26:55.178Z,9.78
2019-01-16T05:29:36.713Z,11.73
2019-01-16T05:32:15.795Z,9.60
2019-01-16T05:34:59.603Z,10.75
2019-01-16T05:37:39.338Z,10.08
2019-01-16T05:40:20.216Z,12.00
2019-01-16T05:43:06.305Z,9.00
2019-01-16T05:45:45.470Z,9.15
2019-01-16T05:48:43.047Z,12.93
2019-01-16T05:51:36.702Z,8.40
2019-01-16T05:54:24.172Z,9.00
2019-01-16T05:57:10.076Z,10.05
2019-01-16T05:59:59.037Z,8.73
2019-01-16T06:02:45.400Z,10.25
2019-01-16T06:05:38.954Z,7.67
2019-01-16T06:08:25.323Z,7.83
2019-01-16T06:11:05.564Z,9.18
2019-01-16T06:13:48.755Z,7.47
2019-01-16T06:16:28.642Z,6.30
2019-01-16T06:19:18.653Z,7.85
2019-01-16T06:22:09.618Z,6.92
2019-01-16T06:25:03.416Z,6.62
2019-01-16T06:27:51.644Z,5.53
2019-01-16T06:30:39.700Z,5.20
2019-01-16T06:33:41.465Z,3.87
2019-01-16T06:36:41.653Z,5.72
2019-01-16T06:39:28.271Z,5.67
2019-01-16T06:42:15.088Z,8.85
2019-01-16T06:45:05.737Z,5.90
2019-01-16T06:47:52.075Z,5.85
2019-01-16T06:50:41.601Z,5.78
2019-01-16T06:53:29.529Z,5.70
2019-01-16T06:56:16.311Z,5.45
2019-01-16T06:59:02.546Z,5.28
2019-01-16T07:01:49.694Z,6.10
2019-01-16T07:04:52.580Z,5.33
2019-01-16T07:07:52.443Z,5.35
2019-01-16T07:10:41.440Z,4.70
2019-01-16T07:13:37.606Z,5.08
2019-01-16T07:16:34.398Z,4.45
2019-01-16T07:19:20.784Z,4.95
2019-01-16T07:22:26.900Z,3.80
2019-01-16T07:25:08.935Z,4.12
2019-01-16T07:27:54.615Z,4.78
2019-01-16T07:30:41.427Z,4.90
2019-01-16T07:33:19.227Z,4.75
2019-01-16T07:36:05.971Z,4.90
2019-01-16T07:38:47.126Z,5.47
2019-01-16T07:41:43.973Z,4.62
2019-01-16T07:44:50.148Z,4.60
2019-01-16T07:47:30.235Z,4.12
2019-01-16T07:50:17.501Z,7.25
2019-01-16T07:53:08.561Z,9.00
2019-01-16T07:55:55.060Z,8.15
2019-01-16T07:58:48.935Z,5.08
2019-01-16T08:01:35.475Z,4.42
2019-01-16T08:04:21.892Z,5.30
2019-01-16T08:07:09.763Z,4.65
2019-01-16T08:10:01.728Z,4.17
2019-01-16T08:12:48.479Z,4.05
2019-01-16T08:15:39.557Z,4.15
2019-01-16T08:18:39.831Z,4.30
2019-01-16T08:21:35.777Z,4.53
2019-01-16T08:24:22.483Z,5.67
2019-01-16T08:27:13.402Z,4.45
2019-01-16T08:29:59.824Z,4.42
2019-01-16T08:32:40.387Z,4.90
2019-01-16T08:35:38.050Z,3.87
2019-01-16T08:38:31.815Z,3.60
2019-01-16T08:41:11.250Z,4.03
2019-01-16T08:43:57.799Z,4.33
2019-01-16T08:46:41.402Z,3.47
2019-01-16T08:49:28.507Z,3.42
2019-01-16T08:52:15.135Z,4.10
2019-01-16T08:54:56.309Z,3.50
2019-01-16T08:57:55.171Z,3.70
2019-01-16T09:00:42.178Z,3.60
2019-01-16T09:03:31.474Z,3.80
2019-01-16T09:06:17.871Z,3.65
2019-01-16T09:09:16.313Z,4.35
2019-01-16T09:12:03.432Z,4.00
2019-01-16T09:15:00.531Z,3.17
2019-01-16T09:17:43.704Z,3.25
2019-01-16T09:20:19.690Z,3.40
2019-01-16T09:23:06.043Z,4.55
2019-01-16T09:25:56.760Z,3.10
2019-01-16T09:28:43.100Z,3.08
2019-01-16T09:31:29.720Z,3.33
2019-01-16T09:34:13.006Z,3.55
2019-01-16T09:36:59.368Z,3.25
2019-01-16T09:39:57.836Z,3.27
2019-01-16T09:42:48.828Z,3.05
2019-01-16T09:45:27.143Z,3.67
2019-01-16T09:48:04.451Z,3.22
2019-01-16T09:50:55.564Z,2.67
2019-01-16T09:53:44.286Z,3.10
2019-01-16T09:56:25.723Z,2.92
2019-01-16T09:59:12.277Z,3.05
2019-01-16T10:01:59.001Z,2.80
2019-01-16T10:04:45.399Z,5.25
2019-01-16T10:07:22.476Z,2.40
2019-01-16T10:10:09.021Z,6.00
2019-01-16T10:12:56.373Z,2.72
2019-01-16T10:15:53.228Z,4.33
2019-01-16T10:18:39.800Z,2.70
2019-01-16T10:21:29.536Z,2.87
2019-01-16T10:24:15.866Z,2.62
2019-01-16T10:27:02.571Z,2.50
2019-01-16T10:29:50.535Z,2.60
2019-01-16T10:32:39.671Z,5.25
2019-01-16T10:35:33.555Z,2.62
2019-01-16T10:38:20.156Z,3.22
2019-01-16T10:41:06.647Z,2.72
2019-01-16T10:43:49.974Z,3.20
2019-01-16T10:46:41.212Z,3.08
2019-01-16T10:49:27.735Z,2.90
2019-01-16T10:52:20.224Z,2.90
2019-01-16T10:55:06.282Z,3.83
2019-01-16T10:58:09.476Z,2.67
2019-01-16T11:00:56.432Z,3.02
2019-01-16T11:03:43.251Z,2.83
2019-01-16T11:06:31.130Z,3.85
2019-01-16T11:09:09.178Z,3.15
2019-01-16T11:12:06.527Z,2.35
2019-01-16T11:14:55.835Z,2.30
2019-01-16T11:17:49.636Z,3.25
2019-01-16T11:20:34.297Z,3.10
2019-01-16T11:23:22.601Z,2.83
2019-01-16T11:26:13.244Z,2.75
2019-01-16T11:29:04.114Z,2.85
2019-01-16T11:31:57.827Z,4.05
2019-01-16T11:34:46.670Z,4.62
2019-01-16T11:37:29.706Z,3.30
2019-01-16T11:40:16.307Z,2.55
2019-01-16T11:43:02.951Z,3.05
2019-01-16T11:45:49.236Z,3.95
2019-01-16T11:48:35.775Z,2.95
2019-01-16T11:51:18.887Z,3.70
2019-01-16T11:54:05.704Z,2.55
2019-01-16T11:56:44.822Z,4.70
2019-01-16T11:59:34.656Z,2.75
2019-01-16T12:02:28.379Z,3.42
2019-01-16T12:05:11.462Z,3.72
2019-01-16T12:08:05.118Z,3.35
2019-01-16T12:10:56.711Z,2.90
2019-01-16T12:13:43.124Z,3.95
2019-01-16T12:16:28.672Z,5.90
2019-01-16T12:19:31.934Z,4.10
2019-01-16T12:22:19.797Z,3.22
2019-01-16T12:25:06.284Z,4.00
2019-01-16T12:27:52.915Z,2.70
2019-01-16T12:30:48.575Z,3.10
2019-01-16T12:33:35.256Z,3.15
2019-01-16T12:36:21.656Z,4.22
2019-01-16T12:39:12.405Z,4.47
2019-01-16T12:42:04.887Z,7.12
2019-01-16T12:44:43.532Z,3.62
2019-01-16T12:47:30.119Z,3.58
2019-01-16T12:50:30.406Z,3.47
2019-01-16T12:53:15.644Z,3.65
2019-01-16T12:56:06.552Z,4.45
2019-01-16T12:58:53.433Z,4.10
2019-01-16T13:01:42.778Z,4.15
2019-01-16T13:04:28.002Z,3.75
2019-01-16T13:07:14.563Z,4.08
2019-01-16T13:10:00.893Z,3.55
2019-01-16T13:12:44.675Z,4.45
2019-01-16T13:15:22.610Z,4.30
2019-01-16T13:18:16.300Z,3.50
2019-01-16T13:20:59.563Z,4.37
2019-01-16T13:23:46.251Z,4.00
2019-01-16T13:26:36.979Z,3.67
2019-01-16T13:29:30.831Z,6.30
2019-01-16T13:32:14.415Z,6.10
2019-01-16T13:35:05.117Z,4.17
2019-01-16T13:37:58.498Z,3.75
2019-01-16T13:40:48.115Z,3.47
2019-01-16T13:43:27.535Z,5.25
2019-01-16T13:46:24.506Z,4.15
2019-01-16T13:49:22.055Z,5.08
2019-01-16T13:52:12.273Z,3.40
2019-01-16T13:54:59.904Z,5.00
2019-01-16T13:57:37.843Z,5.30
2019-01-16T14:00:18.499Z,6.37
2019-01-16T14:02:58.878Z,4.80
2019-01-16T14:05:35.792Z,12.73
2019-01-16T14:08:22.530Z,3.75
2019-01-16T14:11:10.441Z,3.45
2019-01-16T14:14:01.736Z,3.98
2019-01-16T14:16:57.023Z,4.05
2019-01-16T14:19:53.791Z,3.80
2019-01-16T14:22:41.642Z,5.17
2019-01-16T14:25:40.115Z,4.30
2019-01-16T14:28:36.986Z,4.22
2019-01-16T14:31:23.560Z,4.00
2019-01-16T14:34:11.419Z,4.83
2019-01-16T14:37:06.078Z,6.37
2019-01-16T14:39:48.715Z,4.03
2019-01-16T14:42:42.707Z,5.25
2019-01-16T14:45:23.430Z,7.37
2019-01-16T14:48:14.370Z,4.97
2019-01-16T14:51:07.066Z,4.00
2019-01-16T14:53:56.659Z,4.05
2019-01-16T14:56:38.378Z,4.22
2019-01-16T14:59:35.510Z,4.15
2019-01-16T15:02:19.834Z,4.95
2019-01-16T15:04:59.458Z,4.10
2019-01-16T15:08:05.555Z,4.90
2019-01-16T15:10:49.815Z,3.72
2019-01-16T15:13:42.511Z,5.15
2019-01-16T15:16:28.875Z,5.75
2019-01-16T15:19:08.984Z,5.00
2019-01-16T15:21:55.239Z,4.62
2019-01-16T15:24:52.102Z,5.87
2019-01-16T15:27:28.378Z,5.30
2019-01-16T15:30:12.058Z,6.10
2019-01-16T15:32:59.735Z,5.87
2019-01-16T15:35:58.108Z,6.03
2019-01-16T15:38:40.837Z,8.15
2019-01-16T15:41:30.982Z,8.18
2019-01-16T15:44:24.601Z,6.60
2019-01-16T15:47:10.888Z,4.97
2019-01-16T15:49:57.410Z,6.53
2019-01-16T15:52:43.771Z,8.38
2019-01-16T15:55:21.012Z,5.97
2019-01-16T15:58:03.996Z,5.83
2019-01-16T16:00:50.299Z,6.05
2019-01-16T16:03:42.835Z,5.20
2019-01-16T16:06:31.623Z,7.80
2019-01-16T16:09:14.794Z,6.62
2019-01-16T16:11:56.577Z,6.67
2019-01-16T16:14:32.543Z,5.42
2019-01-16T16:17:26.399Z,5.90
2019-01-16T16:20:32.770Z,6.03
2019-01-16T16:23:14.736Z,10.75
2019-01-16T16:26:09.600Z,12.00
2019-01-16T16:29:03.880Z,10.65
2019-01-16T16:32:02.529Z,9.10
2019-01-16T16:35:01.563Z,9.23
2019-01-16T16:37:43.927Z,7.60
2019-01-16T16:40:36.033Z,8.75
2019-01-16T16:43:24.002Z,22.13
2019-01-16T16:46:00.177Z,17.37
2019-01-16T16:48:46.899Z,15.53
2019-01-16T16:51:26.503Z,23.05
2019-01-16T16:54:12.800Z,17.92
2019-01-16T16:56:55.831Z,21.55
2019-01-16T16:59:50.564Z,15.85
2019-01-16T17:02:35.518Z,14.30
2019-01-16T17:05:17.047Z,12.90
2019-01-16T17:08:03.868Z,13.60
2019-01-16T17:10:51.732Z,13.70
2019-01-16T17:13:48.889Z,20.10
2019-01-16T17:16:30.079Z,16.25
2019-01-16T17:19:11.840Z,22.25
2019-01-16T17:22:02.814Z,14.30
2019-01-16T17:24:41.251Z,11.12
2019-01-16T17:27:29.424Z,8.03
2019-01-16T17:30:07.235Z,7.97
2019-01-16T17:32:53.980Z,9.08
2019-01-16T17:35:33.135Z,10.08
2019-01-16T17:38:18.608Z,7.03
2019-01-16T17:40:59.474Z,7.70
2019-01-16T17:43:41.278Z,6.58
2019-01-16T17:46:27.743Z,5.65
2019-01-16T17:49:08.091Z,8.25
2019-01-16T17:52:01.998Z,5.00
2019-01-16T17:55:09.175Z,6.92
2019-01-16T17:57:51.598Z,7.00
2019-01-16T18:00:29.899Z,7.55
2019-01-16T18:03:09.367Z,4.92
2019-01-16T18:06:12.705Z,6.20
2019-01-16T18:09:00.566Z,7.60
2019-01-16T18:11:43.148Z,11.60
2019-01-16T18:14:33.766Z,7.83
2019-01-16T18:17:20.607Z,6.60
2019-01-16T18:20:16.464Z,8.43
2019-01-16T18:22:53.839Z,7.33
2019-01-16T18:25:31.607Z,6.95
2019-01-16T18:28:14.183Z,6.80
2019-01-16T18:31:02.442Z,7.30
2019-01-16T18:33:43.335Z,8.20
2019-01-16T18:36:23.652Z,7.70
2019-01-16T18:39:17.808Z,14.47
2019-01-16T18:42:20.687Z,6.47
2019-01-16T18:44:57.291Z,6.25
2019-01-16T18:47:42.861Z,7.87
2019-01-16T18:50:43.968Z,9.10
2019-01-16T18:53:41.198Z,11.30
2019-01-16T18:56:27.148Z,6.33
2019-01-16T18:59:13.535Z,15.05
2019-01-16T19:02:04.917Z,11.12
2019-01-16T19:04:52.818Z,12.30
2019-01-16T19:07:38.208Z,11.08
2019-01-16T19:10:18.566Z,7.35
2019-01-16T19:13:05.353Z,9.93
2019-01-16T19:15:54.271Z,13.25
2019-01-16T19:18:39.113Z,15.00
2019-01-16T19:21:33.414Z,10.45
2019-01-16T19:24:14.818Z,10.53
2019-01-16T19:26:54.974Z,9.08
2019-01-16T19:29:41.777Z,7.45
2019-01-16T19:32:28.522Z,10.90
2019-01-16T19:35:06.357Z,11.93
2019-01-16T19:38:00.113Z,16.30
2019-01-16T19:40:46.999Z,24.47
2019-01-16T19:43:59.251Z,23.83
2019-01-16T19:46:56.202Z,16.37
2019-01-16T19:49:47.287Z,13.35
2019-01-16T19:52:35.167Z,12.88
2019-01-16T19:55:20.450Z,13.30
2019-01-16T19:58:05.341Z,8.83
2019-01-16T20:00:52.858Z,9.43
2019-01-16T20:03:43.593Z,11.38
2019-01-16T20:06:44.022Z,12.60
2019-01-16T20:09:22.642Z,20.12
2019-01-16T20:12:04.273Z,15.60
2019-01-16T20:14:43.403Z,9.18
2019-01-16T20:17:40.050Z,9.28
2019-01-16T20:20:30.444Z,8.38
2019-01-16T20:23:23.308Z,13.65
2019-01-16T20:26:11.360Z,9.45
2019-01-16T20:28:59.440Z,6.03
2019-01-16T20:31:36.642Z,8.65
2019-01-16T20:34:30.623Z,9.80
2019-01-16T20:37:11.980Z,17.20
2019-01-16T20:40:11.792Z,10.78
2019-01-16T20:43:02.103Z,11.68
2019-01-16T20:45:51.114Z,11.03
2019-01-16T20:48:31.312Z,10.50
2019-01-16T20:51:30.035Z,10.72
2019-01-16T20:54:06.406Z,11.45
2019-01-16T20:56:47.836Z,10.53
2019-01-16T20:59:34.505Z,9.28
2019-01-16T21:02:31.536Z,8.45
2019-01-16T21:05:18.016Z,9.70
2019-01-16T21:08:11.952Z,12.55
2019-01-16T21:10:49.920Z,10.08
2019-01-16T21:13:28.310Z,9.40
2019-01-16T21:16:15.458Z,7.92
2019-01-16T21:19:03.549Z,9.45
2019-01-16T21:21:42.552Z,8.63
2019-01-16T21:24:30.443Z,8.30
2019-01-16T21:27:07.165Z,11.83
2019-01-16T21:29:50.467Z,9.40
2019-01-16T21:32:37.000Z,10.80
2019-01-16T21:35:28.519Z,9.25
2019-01-16T21:38:11.930Z,8.40
2019-01-16T21:40:55.206Z,10.35
2019-01-16T21:43:45.764Z,13.88
2019-01-16T21:46:27.462Z,17.85
2019-01-16T21:49:14.576Z,12.90
2019-01-16T21:51:54.435Z,16.37
2019-01-16T21:54:45.639Z,18.65
2019-01-16T21:57:32.357Z,13.48
2019-01-16T22:00:18.871Z,11.38
2019-01-16T22:03:00.507Z,11.88
2019-01-16T22:05:52.779Z,9.78
2019-01-16T22:08:36.635Z,12.37
2019-01-16T22:11:13.526Z,12.20
2019-01-16T22:13:53.922Z,11.45
2019-01-16T22:16:35.028Z,12.10
2019-01-16T22:19:14.488Z,9.15
2019-01-16T22:22:02.646Z,15.20
2019-01-16T22:24:49.771Z,10.50
2019-01-16T22:27:31.968Z,10.08
2019-01-16T22:30:20.604Z,9.10
2019-01-16T22:32:56.540Z,7.80
2019-01-16T22:36:02.380Z,8.35
2019-01-16T22:38:59.370Z,12.55
2019-01-16T22:41:36.635Z,11.28
2019-01-16T22:44:14.435Z,7.78
2019-01-16T22:47:05.495Z,6.60
2019-01-16T22:49:43.270Z,7.90
2019-01-16T22:52:40.459Z,8.20
2019-01-16T22:55:38.534Z,7.37
2019-01-16T22:58:29.752Z,8.13
2019-01-16T23:01:09.823Z,9.20
2019-01-16T23:03:59.423Z,10.32
2019-01-16T23:06:36.838Z,7.45
2019-01-16T23:09:25.878Z,6.53
2019-01-16T23:12:06.914Z,6.55
2019-01-16T23:14:45.003Z,8.03
2019-01-16T23:17:21.309Z,6.53
2019-01-16T23:20:07.694Z,6.50
2019-01-16T23:22:55.550Z,6.55
2019-01-16T23:25:49.234Z,5.12
2019-01-16T23:28:32.458Z,6.45
2019-01-16T23:31:20.419Z,6.35
2019-01-16T23:33:55.086Z,6.60
2019-01-16T23:36:37.445Z,8.43
2019-01-16T23:39:24.963Z,5.90
2019-01-16T23:42:11.237Z,5.85
2019-01-16T23:44:53.952Z,6.50
2019-01-16T23:47:39.896Z,6.80
2019-01-16T23:50:26.021Z,5.45
2019-01-16T23:53:05.272Z,5.42
2019-01-16T23:55:45.991Z,6.08
2019-01-16T23:58:33.940Z,5.37
